Time;durP1;ratioP1;P1;durP2;ratioP2;P2;SDS_P1;SDS_P2;PMS_P1;PMS_P2;Temp;Humidity;BMP_temperature;BMP_pressure;BME280_temperature;BME280_humidity;BME280_pressure;Samples;Min_cycle;Max_cycle;Signal;HPM_P1;HPM_P2
2021/11/01 00:01:27;;;;;;;55.70;32.48;;;;;;;3.03;79.12;101568.77;1735268;82;21259;-53
2021/11/01 00:04:33;;;;;;;63.08;33.15;;;;;;;3.02;79.22;101564.34;1735476;82;21173;-53
2021/11/01 00:07:39;;;;;;;60.83;31.05;;;;;;;3.01;79.22;101557.17;1735881;82;21156;-54
2021/11/01 00:10:44;;;;;;;52.58;31.23;;;;;;;2.99;79.19;101560.95;1735848;82;21184;-54
2021/11/01 00:13:51;;;;;;;57.15;31.25;;;;;;;2.96;79.20;101562.03;1735980;82;21172;-53
2021/11/01 00:16:57;;;;;;;55.65;29.02;;;;;;;2.95;79.20;101558.92;1717863;82;21386;-53
2021/11/01 00:20:04;;;;;;;64.95;32.63;;;;;;;2.93;79.24;101559.49;1735540;81;21280;-54
2021/11/01 00:23:09;;;;;;;54.42;30.12;;;;;;;2.92;79.21;101552.36;1735985;82;21208;-54
2021/11/01 00:26:14;;;;;;;54.93;29.52;;;;;;;2.90;79.20;101552.09;1735926;82;21203;-54
2021/11/01 00:29:21;;;;;;;52.23;31.12;;;;;;;2.89;79.36;101559.80;1736111;82;21223;-55
2021/11/01 00:32:28;;;;;;;55.28;30.12;;;;;;;2.89;79.48;101551.69;1735896;82;21191;-54
2021/11/01 00:35:35;;;;;;;52.05;29.80;;;;;;;2.90;79.60;101550.23;1735919;82;21196;-53
2021/11/01 00:38:42;;;;;;;58.45;29.57;;;;;;;2.90;79.66;101556.98;1736096;82;21249;-54
2021/11/01 00:41:50;;;;;;;51.63;28.05;;;;;;;2.91;79.74;101558.75;1735911;82;21239;-56
2021/11/01 00:44:56;;;;;;;53.52;29.72;;;;;;;2.92;79.93;101548.78;1736016;82;21204;-55
2021/11/01 00:48:02;;;;;;;57.90;28.10;;;;;;;2.93;79.96;101549.19;1735910;82;21677;-54
2021/11/01 00:51:07;;;;;;;48.80;27.30;;;;;;;2.94;80.00;101545.50;1735951;82;21212;-53
2021/11/01 00:54:12;;;;;;;47.53;27.40;;;;;;;2.95;80.12;101545.87;1735964;82;21192;-56
2021/11/01 00:57:17;;;;;;;46.63;27.00;;;;;;;2.98;80.25;101543.00;1735943;82;21154;-55
2021/11/01 01:00:22;;;;;;;51.05;27.73;;;;;;;3.00;80.44;101548.68;1736034;82;21230;-53
2021/11/01 01:03:28;;;;;;;50.08;28.10;;;;;;;3.02;80.47;101536.41;1736181;82;21177;-54
2021/11/01 01:06:36;;;;;;;45.67;27.20;;;;;;;3.03;80.56;101539.48;1735863;82;21709;-53
2021/11/01 01:09:42;;;;;;;48.25;27.93;;;;;;;3.05;80.62;101532.15;1736056;82;21200;-53
2021/11/01 01:12:49;;;;;;;47.62;28.40;;;;;;;3.08;80.59;101537.86;1735943;82;21176;-54
2021/11/01 01:16:02;;;;;;;43.33;27.58;;;;;;;3.08;80.56;101531.47;1735932;82;21230;-54
2021/11/01 01:19:06;;;;;;;51.30;26.73;;;;;;;3.08;80.52;101529.23;1735426;82;21176;-56
2021/11/01 01:22:34;;;;;;;45.43;27.80;;;;;;;3.08;80.56;101528.39;1736232;82;21200;-54
2021/11/01 01:25:30;;;;;;;47.62;28.60;;;;;;;3.07;80.56;101520.75;1736126;82;21188;-53
2021/11/01 01:28:34;;;;;;;48.25;29.92;;;;;;;3.06;80.49;101519.88;1736264;82;21176;-54
2021/11/01 01:31:41;;;;;;;51.50;29.00;;;;;;;3.04;80.43;101515.55;1735945;82;21212;-53
2021/11/01 01:34:49;;;;;;;57.40;30.52;;;;;;;3.02;80.45;101514.30;1736078;82;21176;-54
2021/11/01 01:37:56;;;;;;;47.58;27.42;;;;;;;3.04;80.66;101519.60;1735626;81;21203;-53
2021/11/01 01:41:02;;;;;;;48.78;28.65;;;;;;;3.05;80.73;101515.92;1735887;82;21271;-53
2021/11/01 01:44:09;;;;;;;50.52;27.27;;;;;;;3.04;80.80;101510.98;1735778;82;21223;-54
2021/11/01 01:47:14;;;;;;;48.50;27.67;;;;;;;3.03;80.89;101520.55;1735885;82;21161;-55
2021/11/01 01:50:22;;;;;;;49.93;26.93;;;;;;;2.99;80.95;101506.86;1735834;82;21259;-54
2021/11/01 01:53:29;;;;;;;43.68;26.12;;;;;;;3.01;81.08;101515.25;1714143;82;21326;-54
2021/11/01 01:56:34;;;;;;;46.10;27.00;;;;;;;3.02;81.10;101505.30;1735876;82;21208;-54
2021/11/01 01:59:40;;;;;;;44.33;25.70;;;;;;;3.02;81.17;101516.13;1735922;82;21251;-54
2021/11/01 02:02:46;;;;;;;49.63;26.07;;;;;;;3.00;81.13;101506.76;1735804;82;21176;-54
2021/11/01 02:05:59;;;;;;;40.43;24.77;;;;;;;2.99;81.14;101501.45;1735865;82;21244;-54
2021/11/01 02:09:09;;;;;;;;;;;;;;;2.98;80.95;101509.19;1738405;82;21203;-53
2021/11/01 02:12:17;;;;;;;47.25;26.87;;;;;;;2.90;80.80;101504.77;1735794;82;20184;-54
2021/11/01 02:15:32;;;;;;;47.17;26.33;;;;;;;2.85;80.92;101504.19;1735804;82;21239;-53
2021/11/01 02:18:40;;;;;;;73.35;35.95;;;;;;;2.81;80.83;101506.70;1735742;82;21157;-55
2021/11/01 02:22:07;;;;;;;82.40;37.80;;;;;;;2.79;80.84;101499.19;1737016;80;21204;-54
2021/11/01 02:25:18;;;;;;;101.80;42.13;;;;;;;2.76;80.94;101508.34;1735586;82;21724;-53
2021/11/01 02:28:32;;;;;;;101.00;46.80;;;;;;;2.76;81.05;101502.06;1735883;82;21200;-54
2021/11/01 02:31:40;;;;;;;93.10;43.50;;;;;;;2.76;81.12;101506.12;1736007;82;21204;-54
2021/11/01 02:34:45;;;;;;;95.92;44.18;;;;;;;2.74;81.15;101498.11;1735978;82;21193;-54
2021/11/01 02:37:50;;;;;;;75.35;37.55;;;;;;;2.73;81.11;101499.56;1735996;81;21255;-54
2021/11/01 02:40:55;;;;;;;57.33;30.72;;;;;;;2.72;81.10;101493.78;1736239;82;21215;-54
2021/11/01 02:44:13;;;;;;;45.70;27.50;;;;;;;2.69;81.11;101481.34;1736000;82;21221;-53
2021/11/01 02:47:18;;;;;;;45.58;27.13;;;;;;;2.68;81.29;101486.85;1736268;82;21701;-53
2021/11/01 02:50:24;;;;;;;47.55;28.25;;;;;;;2.70;81.50;101487.59;1736207;82;21220;-53
2021/11/01 02:53:30;;;;;;;44.08;27.00;;;;;;;2.69;81.55;101488.10;1736097;82;21169;-54
2021/11/01 02:56:37;;;;;;;43.13;27.07;;;;;;;2.63;81.49;101483.57;1736084;82;21215;-54
2021/11/01 02:59:42;;;;;;;43.63;27.30;;;;;;;2.57;81.50;101478.56;1736283;82;21219;-53
2021/11/01 03:02:51;;;;;;;45.90;27.13;;;;;;;2.50;81.56;101486.20;1735927;82;21181;-54
2021/11/01 03:05:58;;;;;;;41.10;26.68;;;;;;;2.44;81.72;101469.50;1735985;82;21262;-55
2021/11/01 03:09:04;;;;;;;40.20;25.88;;;;;;;2.43;81.70;101479.91;1736045;81;21204;-54
2021/11/01 03:12:14;;;;;;;42.13;26.87;;;;;;;2.41;81.65;101471.89;1736111;82;21236;-54
2021/11/01 03:15:22;;;;;;;40.90;24.47;;;;;;;2.42;82.07;101468.25;1735977;82;21258;-53
2021/11/01 03:18:30;;;;;;;41.45;26.95;;;;;;;2.46;82.38;101466.19;1735996;82;21239;-54
2021/11/01 03:21:37;;;;;;;42.70;27.10;;;;;;;2.49;82.59;101472.27;1736773;81;21231;-55
2021/11/01 03:24:46;;;;;;;39.48;25.97;;;;;;;2.52;82.81;101467.18;1736025;82;21296;-55
2021/11/01 03:27:56;;;;;;;42.43;26.05;;;;;;;2.57;82.98;101469.11;1735940;82;21199;-53
2021/11/01 03:31:01;;;;;;;45.08;26.77;;;;;;;2.56;83.02;101466.88;1736019;82;21192;-53
2021/11/01 03:34:10;;;;;;;42.58;25.82;;;;;;;2.52;82.99;101468.02;1720293;82;21299;-54
2021/11/01 03:37:18;;;;;;;39.42;25.45;;;;;;;2.50;83.06;101469.98;1735954;82;21247;-53
2021/11/01 03:40:27;;;;;;;38.25;24.10;;;;;;;2.48;83.17;101468.33;1736001;81;21180;-54
2021/11/01 03:43:36;;;;;;;42.70;25.95;;;;;;;2.48;83.19;101464.27;1735989;82;21223;-54
2021/11/01 03:46:45;;;;;;;42.60;25.32;;;;;;;2.45;83.11;101468.05;1736172;82;21203;-53
2021/11/01 03:49:56;;;;;;;42.90;25.05;;;;;;;2.46;83.20;101461.67;1736381;82;21712;-53
2021/11/01 03:52:58;;;;;;;46.55;29.37;;;;;;;2.44;83.36;101457.34;1736427;82;21185;-54
2021/11/01 03:56:03;;;;;;;46.30;28.15;;;;;;;2.46;83.54;101456.73;1735915;82;21286;-54
2021/11/01 03:59:08;;;;;;;45.33;27.02;;;;;;;2.47;83.63;101444.98;1736050;82;21172;-54
2021/11/01 04:02:21;;;;;;;41.33;25.77;;;;;;;2.47;83.62;101449.03;1736470;82;21198;-54
2021/11/01 04:05:30;;;;;;;38.98;24.60;;;;;;;2.46;83.65;101445.45;1720564;82;21401;-53
2021/11/01 04:08:37;;;;;;;51.00;27.15;;;;;;;2.46;83.54;101445.45;1735900;82;21180;-54
2021/11/01 04:11:49;;;;;;;37.30;23.98;;;;;;;2.43;83.39;101449.70;1735877;81;21713;-54
2021/11/01 04:15:01;;;;;;;40.50;26.70;;;;;;;2.41;83.46;101446.23;1735893;82;21244;-54
2021/11/01 04:18:05;;;;;;;42.70;26.87;;;;;;;2.43;83.55;101448.83;1736077;82;21192;-54
2021/11/01 04:21:11;;;;;;;47.15;27.10;;;;;;;2.40;83.58;101441.80;1735903;82;21316;-54
2021/11/01 04:24:19;;;;;;;48.00;29.07;;;;;;;2.39;83.55;101439.20;1735203;82;21255;-54
2021/11/01 04:27:25;;;;;;;46.18;27.40;;;;;;;2.37;83.54;101435.72;1735980;82;21184;-54
2021/11/01 04:30:38;;;;;;;46.25;27.55;;;;;;;2.35;83.59;101440.34;1736019;82;21247;-54
2021/11/01 04:33:39;;;;;;;42.60;25.52;;;;;;;2.31;83.62;101440.17;1735809;82;21200;-53
2021/11/01 04:36:47;;;;;;;45.20;26.62;;;;;;;2.31;83.85;101432.95;1735930;82;21215;-53
2021/11/01 04:40:17;;;;;;;40.67;24.80;;;;;;;2.33;83.92;101440.95;1698837;82;21379;-54
2021/11/01 04:53:12;;;;;;;45.92;27.70;;;;;;;2.35;84.14;101436.29;1735660;82;21279;-55
2021/11/01 04:56:12;;;;;;;44.70;28.52;;;;;;;2.36;84.21;101436.19;1735985;82;21271;-53
2021/11/01 04:59:20;;;;;;;51.13;29.23;;;;;;;2.39;84.30;101440.55;1735549;82;21169;-54
2021/11/01 05:02:27;;;;;;;49.42;29.20;;;;;;;2.43;84.30;101430.79;1718302;82;21322;-54
2021/11/01 05:05:33;;;;;;;47.75;29.95;;;;;;;2.48;84.27;101429.14;1726733;82;21220;-53
2021/11/01 05:08:50;;;;;;;49.25;28.87;;;;;;;2.51;84.23;101429.81;1735334;82;21207;-54
2021/11/01 05:11:59;;;;;;;47.15;29.12;;;;;;;2.52;84.12;101427.48;1735399;82;21196;-53
2021/11/01 05:21:58;;;;;;;49.93;28.35;;;;;;;2.60;84.03;101425.16;1735885;82;21240;-53
2021/11/01 05:25:11;;;;;;;46.77;27.85;;;;;;;2.61;83.93;101419.28;1754879;79;21189;-54
2021/11/01 05:31:43;;;;;;;48.10;27.32;;;;;;;2.72;83.85;101421.67;1743080;81;21699;-53
2021/11/01 05:34:41;;;;;;;41.58;26.05;;;;;;;2.77;83.77;101420.01;1740016;81;21245;-54
2021/11/01 05:37:48;;;;;;;44.13;27.45;;;;;;;2.82;83.80;101421.93;1740574;81;21246;-54
2021/11/01 05:40:54;;;;;;;44.98;27.15;;;;;;;2.86;83.71;101422.09;1740386;81;21225;-53
2021/11/01 05:43:59;;;;;;;47.05;26.37;;;;;;;2.91;83.81;101415.42;1761496;81;21235;-53
2021/11/01 05:47:06;;;;;;;51.42;27.75;;;;;;;2.95;83.80;101413.36;1765700;81;21274;-53
2021/11/01 05:50:13;;;;;;;45.80;26.75;;;;;;;3.00;83.87;101418.86;1764324;80;21184;-54
2021/11/01 05:53:18;;;;;;;60.20;28.65;;;;;;;3.08;83.95;101419.21;1750882;81;21177;-54
2021/11/01 05:56:44;;;;;;;56.88;31.10;;;;;;;3.21;84.06;101427.37;1751040;81;21786;-54
2021/11/01 05:59:59;;;;;;;66.05;38.25;;;;;;;3.39;84.09;101431.54;1743846;81;21197;-54
2021/11/01 06:15:51;;;;;;;60.15;33.70;;;;;;;4.29;83.28;101412.89;1745197;81;22046;-54
2021/11/01 06:18:58;;;;;;;70.52;36.77;;;;;;;4.44;82.97;101417.66;1768961;80;21197;-54
2021/11/01 06:22:05;;;;;;;58.90;33.73;;;;;;;4.59;82.83;101420.63;1767564;80;21313;-55
2021/11/01 06:25:13;;;;;;;61.10;29.72;;;;;;;4.76;82.68;101427.02;1767937;78;21205;-55
2021/11/01 06:28:17;;;;;;;48.50;27.73;;;;;;;4.91;82.59;101412.80;1740130;82;22104;-55
2021/11/01 06:31:32;;;;;;;50.08;28.52;;;;;;;5.09;82.53;101414.99;1772187;80;21341;-54
2021/11/01 06:44:48;;;;;;;46.63;26.15;;;;;;;5.76;81.63;101399.80;1771983;80;21414;-52
2021/11/01 06:51:31;;;;;;;41.53;25.82;;;;;;;6.04;81.16;101408.41;1771363;80;21208;-55
2021/11/01 07:14:33;;;;;;;41.92;24.32;;;;;;;6.91;79.55;101403.02;1760549;80;21227;-53
2021/11/01 07:17:40;;;;;;;37.78;24.32;;;;;;;7.06;79.12;101399.03;1744553;81;21186;-54
2021/11/01 07:20:53;;;;;;;38.38;24.35;;;;;;;7.16;78.79;101390.95;1753182;81;21245;-55
2021/11/01 07:38:16;;;;;;;61.53;38.28;;;;;;;7.52;78.07;101379.63;1748886;80;21189;-55
2021/11/01 08:35:14;;;;;;;43.17;28.42;;;;;;;9.61;75.09;101341.22;1767115;81;21197;-55
2021/11/01 08:45:07;;;;;;;30.85;23.30;;;;;;;9.75;74.98;101328.45;1765313;79;21600;-56
2021/11/01 09:04:40;;;;;;;45.30;32.35;;;;;;;10.09;73.51;101305.07;1753647;80;21764;-56
2021/11/01 09:08:05;;;;;;;47.62;31.42;;;;;;;10.14;73.25;101300.02;1765788;80;21249;-55
2021/11/01 09:24:45;;;;;;;43.87;32.48;;;;;;;10.61;72.15;101271.16;1760091;81;21165;-56
2021/11/01 09:27:57;;;;;;;33.35;24.95;;;;;;;10.76;71.75;101263.63;1764502;79;21196;-55
2021/11/01 09:41:05;;;;;;;30.00;21.50;;;;;;;11.24;69.98;101238.55;1770493;81;21216;-56
2021/11/01 09:44:09;;;;;;;31.87;22.13;;;;;;;11.31;69.63;101236.87;1770676;80;21213;-55
2021/11/01 09:47:12;;;;;;;37.28;23.30;;;;;;;11.33;69.33;101233.47;1771913;80;21868;-57
2021/11/01 09:50:22;;;;;;;34.90;22.42;;;;;;;11.40;69.41;101229.08;1772378;80;21964;-56
2021/11/01 09:53:39;;;;;;;29.18;22.40;;;;;;;11.51;69.09;101223.33;1772045;80;21757;-56
2021/11/01 09:56:57;;;;;;;33.35;22.37;;;;;;;11.57;68.88;101222.17;1751206;81;21203;-55
2021/11/01 09:59:58;;;;;;;40.92;22.77;;;;;;;11.61;68.62;101219.45;1766160;81;21246;-56
2021/11/01 10:03:03;;;;;;;37.13;23.62;;;;;;;11.61;67.97;101208.98;1767329;80;21176;-56
2021/11/01 10:06:15;;;;;;;29.80;21.55;;;;;;;11.54;68.14;101207.39;1769513;80;21208;-59
2021/11/01 10:09:21;;;;;;;33.42;23.42;;;;;;;11.51;68.24;101197.28;1770917;80;21315;-57
2021/11/01 10:12:35;;;;;;;28.92;21.55;;;;;;;11.53;68.42;101197.95;1746737;80;21322;-57
2021/11/01 10:19:01;;;;;;;33.95;24.02;;;;;;;11.73;68.37;101192.64;1758772;80;21176;-56
2021/11/01 10:22:48;;;;;;;29.77;22.32;;;;;;;11.83;68.25;101194.72;1739532;82;21193;-56
2021/11/01 10:25:27;;;;;;;26.40;21.82;;;;;;;11.92;67.95;101191.85;1740219;81;21713;-56
2021/11/01 10:28:36;;;;;;;34.35;23.57;;;;;;;11.98;67.70;101182.98;1740877;82;22256;-56
2021/11/01 10:31:51;;;;;;;31.60;23.05;;;;;;;12.04;67.42;101174.09;1767650;79;21225;-56
2021/11/01 10:34:57;;;;;;;28.65;22.22;;;;;;;12.10;67.42;101168.42;1761657;79;21264;-56
2021/11/01 10:38:39;;;;;;;31.97;22.48;;;;;;;12.22;67.16;101171.23;1768064;81;21194;-56
2021/11/01 10:41:42;;;;;;;29.85;21.20;;;;;;;12.32;66.85;101167.80;1769507;80;21197;-55
2021/11/01 10:45:11;;;;;;;26.87;19.87;;;;;;;12.38;66.09;101160.80;1768629;80;21765;-56
2021/11/01 11:12:16;;;;;;;19.10;13.48;;;;;;;13.28;64.30;101137.66;1706527;84;21298;-56
2021/11/01 11:15:19;;;;;;;22.85;14.73;;;;;;;13.46;63.45;101144.33;1723295;81;21201;-56
2021/11/01 11:22:51;;;;;;;22.15;15.23;;;;;;;13.84;62.54;101137.14;1700345;84;21299;-56
2021/11/01 11:31:42;;;;;;;18.85;13.72;;;;;;;14.23;61.05;101115.93;1712930;83;21224;-55
2021/11/01 11:38:55;;;;;;;19.13;15.37;;;;;;;14.42;59.69;101105.85;1771990;81;21335;-55
2021/11/01 11:48:45;;;;;;;30.08;16.57;;;;;;;14.61;58.50;101081.94;1772988;80;21832;-54
2021/11/01 11:52:07;;;;;;;22.98;13.62;;;;;;;14.64;58.18;101083.81;1757429;80;21483;-54
2021/11/01 11:55:24;;;;;;;18.80;13.03;;;;;;;14.66;57.84;101075.36;1763213;81;21229;-57
2021/11/01 11:58:29;;;;;;;22.55;15.53;;;;;;;14.64;57.52;101063.66;1745589;80;21353;-55
2021/11/01 12:01:42;;;;;;;22.93;13.60;;;;;;;14.69;57.56;101058.45;1743252;81;21212;-57
2021/11/01 12:04:49;;;;;;;18.10;13.88;;;;;;;14.73;57.19;101049.62;1764722;81;21236;-55
2021/11/01 12:08:17;;;;;;;16.82;13.65;;;;;;;14.69;56.89;101039.16;1764008;81;21209;-54
2021/11/01 12:11:36;;;;;;;16.32;14.13;;;;;;;14.68;57.01;101034.70;1749864;81;21259;-55
2021/11/01 12:17:56;;;;;;;18.25;13.48;;;;;;;14.78;56.55;101040.78;1761683;80;21229;-54
2021/11/01 12:21:09;;;;;;;19.55;13.13;;;;;;;14.75;56.41;101035.64;1760712;81;21270;-54
2021/11/01 12:24:23;;;;;;;32.80;21.37;;;;;;;14.77;56.44;101025.30;1762491;80;21593;-55
2021/11/01 12:27:30;;;;;;;27.40;19.00;;;;;;;14.81;56.21;101041.27;1752342;80;21228;-55
2021/11/01 12:30:46;;;;;;;18.90;13.80;;;;;;;14.77;55.94;101037.70;1763435;80;21360;-55
2021/11/01 12:33:59;;;;;;;21.10;13.75;;;;;;;14.69;56.15;101029.51;1761805;81;21278;-55
2021/11/01 12:40:26;;;;;;;22.82;14.15;;;;;;;14.68;56.06;101036.08;1749907;80;21748;-55
2021/11/01 12:47:38;;;;;;;25.48;14.58;;;;;;;14.66;56.25;101034.02;1687728;84;21215;-57
2021/11/01 12:59:52;;;;;;;18.65;12.60;;;;;;;14.75;56.02;101037.02;1744993;81;21332;-57
2021/11/01 13:02:58;;;;;;;17.40;12.50;;;;;;;14.70;56.17;101037.59;1765286;80;21525;-56
2021/11/01 13:06:08;;;;;;;20.02;12.37;;;;;;;14.62;56.42;101030.77;1760406;81;21815;-56
2021/11/01 13:09:14;;;;;;;20.82;13.53;;;;;;;14.53;56.41;101036.54;1756672;80;21768;-56
2021/11/01 13:18:37;;;;;;;29.07;17.55;;;;;;;14.28;56.87;101030.90;1761448;79;21189;-56
2021/11/01 13:21:53;;;;;;;26.42;17.45;;;;;;;14.21;56.99;101026.61;1760895;80;21252;-58
2021/11/01 13:25:03;;;;;;;27.48;17.75;;;;;;;14.16;57.13;101029.59;1758763;81;21218;-56
2021/11/01 13:38:23;;;;;;;31.25;20.12;;;;;;;13.96;57.69;101013.19;1719506;81;21855;-55
2021/11/01 13:41:30;;;;;;;38.55;21.68;;;;;;;13.84;57.89;101006.41;1742758;81;21705;-56
2021/11/01 13:44:35;;;;;;;30.77;22.30;;;;;;;13.73;58.12;101008.20;1735465;82;21183;-56
2021/11/01 13:47:55;;;;;;;34.03;22.10;;;;;;;13.58;58.39;101004.48;1735763;82;21238;-55
2021/11/01 13:51:16;;;;;;;38.28;23.98;;;;;;;13.43;58.68;101007.13;1735635;82;21200;-55
2021/11/01 13:54:34;;;;;;;37.20;23.90;;;;;;;13.25;58.97;101001.03;1724631;82;21245;-57
2021/11/01 13:57:42;;;;;;;36.35;23.55;;;;;;;13.08;59.37;101003.52;1736145;82;21195;-58
2021/11/01 14:14:19;;;;;;;48.60;24.32;;;;;;;12.14;61.60;100998.28;1723453;82;21204;-57
2021/11/01 14:26:56;;;;;;;45.65;25.00;;;;;;;11.72;62.48;101001.14;1720950;81;21230;-56
2021/11/01 14:56:26;;;;;;;37.42;21.85;;;;;;;10.02;67.38;100983.86;1759373;80;21247;-56
2021/11/01 15:09:18;;;;;;;44.58;26.02;;;;;;;9.55;68.74;100962.37;1756667;81;21774;-55
2021/11/01 15:29:10;;;;;;;55.03;28.80;;;;;;;9.18;70.65;100966.58;1738051;82;21200;-56
2021/11/01 16:19:08;;;;;;;88.75;38.25;;;;;;;8.26;73.12;100977.59;1769455;81;21193;-53
2021/11/01 16:22:18;;;;;;;87.70;40.58;;;;;;;8.20;73.25;100976.27;1762992;81;21216;-54
2021/11/01 16:25:25;;;;;;;82.17;40.05;;;;;;;8.13;73.35;100973.78;1770278;81;21231;-53
2021/11/01 16:28:33;;;;;;;90.65;42.50;;;;;;;8.06;73.53;100972.63;1770332;81;21273;-54
2021/11/01 16:34:56;;;;;;;156.45;69.95;;;;;;;7.95;73.96;100968.70;1769752;81;21237;-56
2021/11/01 16:38:15;;;;;;;157.50;78.80;;;;;;;7.91;74.08;100958.23;1769241;81;21189;-54
2021/11/01 16:41:19;;;;;;;166.40;78.00;;;;;;;7.84;74.26;100961.16;1755398;81;21205;-53
2021/11/01 16:44:28;;;;;;;156.22;75.78;;;;;;;7.80;74.55;100961.95;1765991;81;21777;-53
2021/11/01 16:47:35;;;;;;;150.25;71.62;;;;;;;7.77;74.84;100976.39;1765358;79;21769;-54
2021/11/01 16:50:42;;;;;;;163.15;74.60;;;;;;;7.77;75.09;100976.39;1764064;81;21746;-53
2021/11/01 16:53:51;;;;;;;133.18;67.15;;;;;;;7.76;75.28;100988.27;1767156;81;21539;-53
2021/11/01 16:57:07;;;;;;;119.77;59.55;;;;;;;7.74;75.34;100984.86;1769697;81;21813;-53
2021/11/01 17:04:12;;;;;;;118.33;53.73;;;;;;;7.68;75.55;100970.41;1764238;80;21228;-54
2021/11/01 17:06:43;;;;;;;93.97;47.53;;;;;;;7.64;75.61;100975.31;1765692;81;21718;-54
2021/11/01 17:10:13;;;;;;;90.62;45.17;;;;;;;7.60;75.61;100973.38;1758977;81;21685;-53
2021/11/01 17:30:28;;;;;;;60.10;32.10;;;;;;;7.43;76.88;100957.73;1708621;83;21383;-54
2021/11/01 17:36:56;;;;;;;52.27;29.52;;;;;;;7.40;77.33;100957.16;1720057;82;21356;-54
2021/11/01 18:36:29;;;;;;;37.00;23.10;;;;;;;7.57;81.50;100927.34;1753595;82;21866;-55
2021/11/01 18:41:47;;;;;;;43.40;25.97;;;;;;;7.45;81.66;100923.55;1751240;82;21954;-53
2021/11/01 18:51:46;;;;;;;41.30;25.95;;;;;;;7.33;81.82;100906.47;1750845;82;21370;-56
2021/11/01 18:55:04;;;;;;;44.53;25.72;;;;;;;7.31;81.94;100904.87;1730005;82;21252;-53
2021/11/01 18:58:14;;;;;;;44.50;25.35;;;;;;;7.28;82.01;100910.12;1750991;82;21339;-53
2021/11/01 19:01:20;;;;;;;41.55;25.20;;;;;;;7.25;82.10;100902.23;1750926;82;21784;-54
2021/11/01 19:04:33;;;;;;;44.13;25.32;;;;;;;7.22;82.15;100897.08;1751270;82;21335;-55
2021/11/01 20:05:27;;;;;;;41.77;19.85;;;;;;;6.65;84.73;100909.20;1767569;81;21739;-55
2021/11/01 21:27:00;;;;;;;43.30;25.43;;;;;;;7.02;85.65;100877.65;1736306;82;21231;-54
2021/11/01 21:30:05;;;;;;;38.30;25.35;;;;;;;7.03;85.58;100875.27;1736439;82;21337;-55
2021/11/01 21:33:16;;;;;;;40.73;26.73;;;;;;;7.04;85.53;100866.62;1736528;82;21317;-53
2021/11/01 21:36:25;;;;;;;42.05;26.73;;;;;;;7.04;85.49;100848.92;1736945;82;21580;-54
2021/11/01 21:39:32;;;;;;;40.23;26.75;;;;;;;7.03;85.44;100837.66;1737094;82;21184;-55
2021/11/01 21:42:38;;;;;;;41.42;27.67;;;;;;;7.03;85.45;100833.09;1751175;82;21354;-56
2021/11/01 21:45:45;;;;;;;44.42;27.73;;;;;;;7.05;85.54;100837.02;1750415;82;21232;-56
2021/11/01 21:48:52;;;;;;;48.17;28.27;;;;;;;7.10;85.62;100837.47;1751334;82;21832;-54
2021/11/01 21:51:58;;;;;;;45.65;27.22;;;;;;;7.14;85.63;100826.14;1751255;82;21820;-53
2021/11/01 21:55:06;;;;;;;47.45;29.42;;;;;;;7.19;85.62;100832.02;1751311;82;21283;-54
2021/11/01 22:18:12;;;;;;;45.30;28.10;;;;;;;7.40;85.06;100795.94;1751140;82;21682;-54
2021/11/01 22:24:31;;;;;;;47.10;28.35;;;;;;;7.45;84.93;100805.06;1751140;82;21334;-53
2021/11/01 22:34:25;;;;;;;45.70;26.62;;;;;;;7.53;84.75;100792.41;1738787;82;21307;-55
2021/11/01 22:44:36;;;;;;;45.70;28.30;;;;;;;7.57;84.47;100792.48;1760321;81;21315;-54
2021/11/01 22:57:24;;;;;;;44.67;27.52;;;;;;;7.66;84.28;100783.08;1759839;81;21346;-54
2021/11/01 23:00:33;;;;;;;49.30;27.93;;;;;;;7.66;84.20;100775.74;1759825;81;21382;-54
2021/11/01 23:31:24;;;;;;;51.63;29.00;;;;;;;7.64;84.02;100754.63;1759798;81;21177;-54
2021/11/01 23:33:55;;;;;;;52.03;30.75;;;;;;;7.63;84.45;100723.78;1759993;81;20457;-55
2021/11/01 23:37:02;;;;;;;53.38;30.95;;;;;;;7.63;84.57;100719.70;1759695;81;21200;-55
2021/11/01 23:40:08;;;;;;;55.73;31.10;;;;;;;7.66;84.69;100718.52;1759806;81;21358;-55
2021/11/01 23:43:14;;;;;;;51.88;31.10;;;;;;;7.68;84.81;100703.39;1756595;80;21201;-54
2021/11/01 23:46:19;;;;;;;55.25;30.17;;;;;;;7.69;84.97;100700.52;1751071;82;21343;-54
2021/11/01 23:49:25;;;;;;;54.48;31.23;;;;;;;7.71;85.08;100693.58;1750707;82;21859;-54
2021/11/01 23:52:39;;;;;;;62.23;33.98;;;;;;;7.70;85.21;100694.57;1751147;82;21363;-54
2021/11/01 23:55:40;;;;;;;63.58;33.02;;;;;;;7.71;85.37;100689.50;1751323;82;21339;-55
2021/11/01 23:58:47;;;;;;;63.23;35.50;;;;;;;7.66;85.52;100670.02;1751200;82;21239;-55
